Time;durP1;ratioP1;P1;durP2;ratioP2;P2;SDS_P1;SDS_P2;PMS_P1;PMS_P2;Temp;Humidity;BMP_temperature;BMP_pressure;BME280_temperature;BME280_humidity;BME280_pressure;Samples;Min_cycle;Max_cycle;Signal;HPM_P1;HPM_P2
2024/04/13 00:02:06;;;;;;;5.88;2.42;;;;;;;13.74;57.78;94038.06;2028077;70;20595;-71
2024/04/13 00:04:32;;;;;;;7.80;2.45;;;;;;;13.77;57.77;94024.81;2028239;70;20491;-70
2024/04/13 00:06:58;;;;;;;9.88;2.72;;;;;;;13.71;58.07;94036.47;2028576;70;20161;-71
2024/04/13 00:09:25;;;;;;;10.00;2.80;;;;;;;13.87;57.58;94028.34;2028297;70;20199;-72
2024/04/13 00:11:50;;;;;;;7.13;2.45;;;;;;;13.85;57.39;94023.31;2028411;70;20204;-71
2024/04/13 00:14:16;;;;;;;13.30;2.60;;;;;;;13.81;56.72;94020.19;2028311;70;20537;-68
2024/04/13 00:16:42;;;;;;;6.63;2.25;;;;;;;13.99;54.90;94026.38;2024559;70;20613;-71
2024/04/13 00:19:07;;;;;;;9.20;2.58;;;;;;;13.91;55.46;94026.53;2028452;70;20552;-74
2024/04/13 00:21:33;;;;;;;7.95;2.60;;;;;;;13.91;55.04;94032.22;2028384;70;20622;-73
2024/04/13 00:23:59;;;;;;;8.15;3.50;;;;;;;13.99;54.43;94026.38;2028275;70;20193;-71
2024/04/13 00:26:24;;;;;;;8.02;2.47;;;;;;;13.94;54.35;94025.34;2028505;70;20594;-71
2024/04/13 00:28:53;;;;;;;7.07;2.80;;;;;;;13.71;55.22;94014.56;2028108;70;20526;-71
2024/04/13 00:31:20;;;;;;;10.90;3.05;;;;;;;13.70;55.09;93998.94;2028459;70;20148;-70
2024/04/13 00:33:47;;;;;;;8.77;2.40;;;;;;;13.83;55.72;94011.09;2025044;70;20145;-70
2024/04/13 00:36:14;;;;;;;7.43;2.50;;;;;;;13.84;56.22;94013.34;2028765;70;20150;-69
2024/04/13 00:38:42;;;;;;;11.38;2.50;;;;;;;13.75;55.96;94011.28;2025191;70;20257;-71
2024/04/13 00:41:08;;;;;;;5.45;2.40;;;;;;;13.60;55.80;94005.94;2028298;70;20149;-68
2024/04/13 00:43:40;;;;;;;9.35;3.05;;;;;;;13.82;55.07;94015.25;2028420;70;20140;-69
2024/04/13 00:46:16;;;;;;;10.13;2.92;;;;;;;13.68;55.70;94001.59;2024798;70;20468;-69
2024/04/13 00:48:52;;;;;;;10.77;2.40;;;;;;;13.72;56.47;94013.22;2028055;70;20678;-68
2024/04/13 00:51:18;;;;;;;11.68;3.20;;;;;;;13.40;56.91;94006.00;2028613;70;20192;-69
2024/04/13 00:53:48;;;;;;;10.57;2.83;;;;;;;13.50;56.86;94005.97;2028315;70;20228;-71
2024/04/13 00:56:18;;;;;;;8.73;2.80;;;;;;;13.32;57.27;94002.59;2028119;70;20302;-70
2024/04/13 00:58:45;;;;;;;6.32;2.53;;;;;;;13.56;56.49;94000.00;2028277;70;20156;-70
2024/04/13 01:01:15;;;;;;;9.85;2.53;;;;;;;13.02;57.90;93997.56;2024601;70;20133;-70
2024/04/13 01:03:43;;;;;;;8.95;2.55;;;;;;;13.39;57.32;94010.19;2024859;70;20156;-74
2024/04/13 01:06:10;;;;;;;7.07;2.42;;;;;;;13.39;58.11;94007.34;2028760;70;20256;-72
2024/04/13 01:08:37;;;;;;;10.82;2.70;;;;;;;13.36;57.08;93997.22;2028237;70;20145;-72
2024/04/13 01:11:03;;;;;;;10.85;2.80;;;;;;;13.36;57.50;94008.53;2028187;70;20502;-70
2024/04/13 01:13:30;;;;;;;10.35;2.58;;;;;;;13.09;55.63;94007.97;2028246;70;20518;-70
2024/04/13 01:15:58;;;;;;;6.60;2.38;;;;;;;13.55;54.83;94004.19;2028064;70;20613;-75
2024/04/13 01:18:24;;;;;;;7.88;2.53;;;;;;;13.17;55.59;93994.41;2028479;70;20311;-70
2024/04/13 01:20:50;;;;;;;11.88;2.30;;;;;;;13.45;55.41;94004.94;2028445;70;20279;-71
2024/04/13 01:23:16;;;;;;;10.85;2.58;;;;;;;13.12;57.42;93998.28;2028413;70;20157;-70
2024/04/13 01:25:42;;;;;;;10.27;2.83;;;;;;;13.29;56.15;94006.63;2028285;70;20129;-68
2024/04/13 01:28:09;;;;;;;7.10;2.75;;;;;;;13.26;56.44;93998.59;2028215;70;20147;-72
2024/04/13 01:30:36;;;;;;;6.13;2.30;;;;;;;13.25;56.72;93997.13;2028213;70;20332;-71
2024/04/13 01:33:03;;;;;;;11.07;2.53;;;;;;;13.22;56.96;93994.13;2023704;71;20292;-72
2024/04/13 01:35:30;;;;;;;9.52;2.55;;;;;;;13.23;57.11;94009.75;2024236;70;20157;-70
2024/04/13 01:37:55;;;;;;;8.40;2.53;;;;;;;13.26;56.84;94002.16;2024651;70;20164;-74
2024/04/13 01:40:22;;;;;;;8.93;2.60;;;;;;;13.13;56.41;94002.59;2024396;70;20522;-70
2024/04/13 01:42:48;;;;;;;6.40;2.58;;;;;;;13.17;56.65;94006.47;2024440;71;20164;-72
2024/04/13 01:45:14;;;;;;;8.57;2.50;;;;;;;13.15;57.02;93995.03;2024655;70;20590;-72
2024/04/13 01:47:39;;;;;;;7.05;2.72;;;;;;;13.10;57.36;94004.56;2024322;70;20149;-73
2024/04/13 01:50:06;;;;;;;11.57;2.70;;;;;;;12.98;58.43;93995.19;2023999;70;20214;-70
2024/04/13 01:52:32;;;;;;;8.55;2.63;;;;;;;12.91;58.48;93988.34;2024934;71;20161;-71
2024/04/13 01:54:58;;;;;;;10.18;2.67;;;;;;;12.89;57.80;93996.69;2024807;71;20208;-70
2024/04/13 01:57:23;;;;;;;11.15;3.08;;;;;;;12.83;58.30;93995.47;2024346;70;20241;-70
2024/04/13 01:59:49;;;;;;;8.80;2.70;;;;;;;12.81;58.32;93993.25;2024818;70;20172;-71
2024/04/13 02:02:14;;;;;;;8.95;2.40;;;;;;;12.85;58.08;93987.91;2024415;70;20561;-72
2024/04/13 02:04:40;;;;;;;8.77;2.80;;;;;;;12.16;60.44;93991.25;2024727;70;20173;-72
2024/04/13 02:07:06;;;;;;;14.60;2.80;;;;;;;12.46;59.67;93987.91;2024699;70;20213;-74
2024/04/13 02:09:33;;;;;;;9.65;2.90;;;;;;;12.55;59.02;94000.53;2024577;70;20573;-72
2024/04/13 02:12:02;;;;;;;8.30;2.78;;;;;;;12.59;59.27;94000.81;2024840;70;20241;-70
2024/04/13 02:14:27;;;;;;;7.68;2.58;;;;;;;12.54;59.88;94001.13;2024230;70;20157;-71
2024/04/13 02:16:53;;;;;;;7.45;2.60;;;;;;;12.46;59.84;93992.78;2024179;71;20158;-74
2024/04/13 02:19:19;;;;;;;9.77;2.65;;;;;;;12.32;59.96;93988.91;2024515;70;20152;-70
2024/04/13 02:21:44;;;;;;;8.65;2.50;;;;;;;12.37;59.92;93987.88;2024614;70;20154;-70
2024/04/13 02:24:10;;;;;;;6.82;2.60;;;;;;;12.27;59.91;93985.03;2024713;70;20520;-71
2024/04/13 02:26:36;;;;;;;6.13;2.58;;;;;;;12.35;59.70;93991.28;2024682;70;20256;-70
2024/04/13 02:29:02;;;;;;;9.98;2.80;;;;;;;12.27;60.04;93989.94;2023982;70;20202;-69
2024/04/13 02:31:27;;;;;;;12.63;3.03;;;;;;;12.31;59.87;93987.41;2024367;70;20487;-69
2024/04/13 02:33:53;;;;;;;9.85;2.50;;;;;;;12.28;60.63;93982.94;2026389;70;20220;-69
2024/04/13 02:36:18;;;;;;;11.48;2.72;;;;;;;12.21;59.63;93979.69;2024443;71;20587;-74
2024/04/13 02:38:44;;;;;;;7.80;2.63;;;;;;;12.07;60.14;93984.25;2024704;70;20188;-72
2024/04/13 02:41:09;;;;;;;8.18;2.60;;;;;;;12.17;60.75;93985.03;2025183;70;20660;-68
2024/04/13 02:43:35;;;;;;;9.00;3.15;;;;;;;12.30;59.66;93977.47;2024891;70;20145;-69
2024/04/13 02:46:11;;;;;;;10.35;2.67;;;;;;;12.04;60.10;93982.59;2025182;70;20153;-75
2024/04/13 02:48:43;;;;;;;8.18;2.60;;;;;;;12.23;60.27;93989.63;2024713;71;20222;-70
2024/04/13 02:51:10;;;;;;;12.30;2.90;;;;;;;12.07;61.10;93994.81;2025035;70;20170;-70
2024/04/13 02:53:36;;;;;;;6.60;2.72;;;;;;;12.01;60.72;93986.63;2025072;70;20153;-69
2024/04/13 02:56:06;;;;;;;5.88;2.97;;;;;;;11.94;61.20;93993.13;2025224;70;20156;-68
2024/04/13 02:58:32;;;;;;;10.18;2.95;;;;;;;11.70;62.26;93992.72;2024713;71;20472;-70
2024/04/13 03:00:59;;;;;;;6.70;2.92;;;;;;;11.88;62.54;93990.59;2025224;70;20149;-69
2024/04/13 03:03:26;;;;;;;11.52;2.78;;;;;;;11.75;61.68;93968.41;2024609;71;20342;-68
2024/04/13 03:06:08;;;;;;;12.57;3.30;;;;;;;11.86;61.67;93986.88;2024875;71;20184;-68
2024/04/13 03:08:35;;;;;;;6.80;2.70;;;;;;;11.87;61.20;93989.13;2025079;71;20227;-69
2024/04/13 03:11:01;;;;;;;6.05;2.72;;;;;;;11.71;62.02;93982.94;2025086;70;20157;-72
2024/04/13 03:13:28;;;;;;;6.18;2.70;;;;;;;11.66;62.72;93986.78;2024814;71;20414;-75
2024/04/13 03:16:08;;;;;;;7.13;2.55;;;;;;;11.47;62.44;93980.31;2025042;70;20682;-73
2024/04/13 03:18:39;;;;;;;11.55;2.35;;;;;;;11.49;62.59;93984.03;2025332;70;20164;-74
2024/04/13 03:21:06;;;;;;;8.05;3.08;;;;;;;11.51;62.66;93987.00;2025148;70;20136;-72
2024/04/13 03:23:35;;;;;;;8.40;2.70;;;;;;;11.53;62.18;93989.25;2025202;70;20153;-73
2024/04/13 03:26:00;;;;;;;8.77;3.10;;;;;;;11.52;62.54;93987.75;2025475;70;20241;-75
2024/04/13 03:28:28;;;;;;;6.38;2.60;;;;;;;11.50;62.55;93998.88;2024863;71;20553;-71
2024/04/13 03:30:55;;;;;;;5.93;2.85;;;;;;;11.49;62.53;93991.75;2025446;70;20182;-71
2024/04/13 03:33:22;;;;;;;8.95;3.00;;;;;;;11.43;61.94;93992.75;2027145;70;20180;-73
2024/04/13 03:35:48;;;;;;;12.25;2.80;;;;;;;11.54;61.71;93988.66;2024823;70;20249;-70
2024/04/13 03:38:14;;;;;;;8.38;2.75;;;;;;;11.34;62.60;93993.44;2028821;70;20514;-70
2024/04/13 03:40:40;;;;;;;7.82;2.80;;;;;;;11.35;63.31;93997.00;2025195;70;20621;-68
2024/04/13 03:43:05;;;;;;;7.63;2.50;;;;;;;11.29;62.57;93988.09;2028637;70;20184;-70
2024/04/13 03:45:31;;;;;;;8.60;2.55;;;;;;;11.30;63.28;93998.78;2028530;70;20150;-68
2024/04/13 03:47:58;;;;;;;6.93;2.72;;;;;;;11.31;63.52;94003.06;2025238;70;20156;-71
2024/04/13 03:50:24;;;;;;;6.20;2.60;;;;;;;11.37;62.99;94005.66;2028416;70;20213;-71
2024/04/13 03:52:50;;;;;;;8.85;2.88;;;;;;;11.03;64.38;94010.03;2025119;70;20144;-70
2024/04/13 03:55:15;;;;;;;11.65;3.88;;;;;;;11.00;64.16;94021.75;2028599;70;20152;-72
2024/04/13 03:57:41;;;;;;;10.95;4.20;;;;;;;11.01;63.50;94015.50;2028532;70;20137;-73
2024/04/13 04:00:08;;;;;;;9.68;3.95;;;;;;;10.97;64.37;94020.81;2028434;70;20278;-74
2024/04/13 04:02:37;;;;;;;9.73;3.95;;;;;;;10.94;64.55;94017.09;2028635;70;20176;-69
2024/04/13 04:05:04;;;;;;;15.77;3.95;;;;;;;10.98;63.93;94016.66;2028480;70;20594;-70
2024/04/13 04:07:30;;;;;;;7.47;3.55;;;;;;;10.97;63.60;94018.00;2028460;70;20225;-71
2024/04/13 04:09:55;;;;;;;8.52;3.25;;;;;;;11.02;63.62;94011.34;2028425;70;20151;-72
2024/04/13 04:12:21;;;;;;;10.52;3.40;;;;;;;10.89;64.23;94015.28;2028491;70;20164;-70
2024/04/13 04:14:47;;;;;;;9.90;3.30;;;;;;;10.74;64.57;94000.63;2028414;70;20159;-72
2024/04/13 04:17:12;;;;;;;12.20;3.92;;;;;;;10.82;64.25;94006.94;2025119;70;20224;-70
2024/04/13 04:19:38;;;;;;;11.32;3.50;;;;;;;10.66;64.86;94014.78;2028568;70;20156;-69
2024/04/13 04:22:04;;;;;;;7.18;3.13;;;;;;;10.74;65.18;94020.34;2028292;70;20141;-69
2024/04/13 04:24:29;;;;;;;9.43;3.13;;;;;;;10.75;64.69;94005.69;2028541;70;20149;-70
2024/04/13 04:26:55;;;;;;;12.70;3.72;;;;;;;10.75;64.69;94013.38;2028594;70;20152;-69
2024/04/13 04:29:21;;;;;;;14.40;3.70;;;;;;;10.78;64.82;94017.88;2028686;70;20283;-69
2024/04/13 04:31:47;;;;;;;17.02;3.65;;;;;;;10.78;65.03;94012.22;2028552;70;20176;-70
2024/04/13 04:34:12;;;;;;;8.35;3.38;;;;;;;10.81;64.99;94016.69;2025051;70;20260;-73
2024/04/13 04:36:39;;;;;;;8.35;3.33;;;;;;;10.75;64.39;94021.84;2025117;70;20241;-70
2024/04/13 04:39:05;;;;;;;15.25;3.60;;;;;;;10.68;65.60;94026.97;2028405;70;20156;-71
2024/04/13 04:41:31;;;;;;;11.05;3.50;;;;;;;10.68;65.01;94012.16;2028594;70;20168;-71
2024/04/13 04:43:57;;;;;;;12.15;3.25;;;;;;;10.65;64.77;94018.94;2025107;70;20628;-68
2024/04/13 04:46:22;;;;;;;8.18;2.92;;;;;;;10.55;65.63;94012.50;2028608;70;20152;-69
2024/04/13 04:48:51;;;;;;;19.08;3.78;;;;;;;10.40;66.41;94013.38;2028525;70;20221;-69
2024/04/13 04:51:18;;;;;;;14.15;3.17;;;;;;;10.66;65.18;94017.63;2028772;70;20160;-69
2024/04/13 04:53:44;;;;;;;12.50;2.95;;;;;;;10.74;64.89;94015.47;2024989;70;20590;-69
2024/04/13 04:56:09;;;;;;;13.50;3.20;;;;;;;10.81;63.87;94023.09;2028665;70;20584;-70
2024/04/13 04:58:36;;;;;;;9.63;3.60;;;;;;;10.65;65.38;94030.94;2028406;70;20211;-70
2024/04/13 05:01:05;;;;;;;7.40;3.20;;;;;;;10.65;65.35;94033.78;2028497;70;20595;-70
2024/04/13 05:03:30;;;;;;;11.57;3.08;;;;;;;10.65;64.81;94039.41;2028562;70;20159;-71
2024/04/13 05:05:57;;;;;;;9.35;2.95;;;;;;;10.44;65.90;94033.41;2028619;70;20145;-70
2024/04/13 05:08:23;;;;;;;9.65;2.50;;;;;;;10.54;65.35;94017.38;2028457;70;20262;-73
2024/04/13 05:10:48;;;;;;;11.98;3.63;;;;;;;10.06;67.70;94040.13;2028415;70;20163;-71
2024/04/13 05:13:15;;;;;;;10.65;3.25;;;;;;;10.44;65.90;94036.22;2028354;70;20240;-70
2024/04/13 05:15:41;;;;;;;9.27;3.50;;;;;;;10.46;66.28;94027.97;2024612;70;20187;-69
2024/04/13 05:18:07;;;;;;;6.88;3.30;;;;;;;10.74;64.07;94032.34;2024899;70;20331;-69
2024/04/13 05:20:34;;;;;;;9.13;3.45;;;;;;;10.71;65.19;94036.31;2028358;70;20157;-69
2024/04/13 05:23:01;;;;;;;8.75;3.45;;;;;;;10.83;64.59;94040.13;2028182;70;20267;-72
2024/04/13 05:25:27;;;;;;;11.18;3.22;;;;;;;10.73;64.98;94042.13;2024691;70;20159;-73
2024/04/13 05:27:53;;;;;;;8.27;3.42;;;;;;;10.85;64.64;94043.13;2024525;70;20176;-73
2024/04/13 05:30:19;;;;;;;8.18;3.30;;;;;;;10.89;64.04;94046.25;2024576;70;20157;-70
2024/04/13 05:32:44;;;;;;;10.27;3.90;;;;;;;10.85;64.40;94040.28;2028276;70;20153;-71
2024/04/13 05:35:10;;;;;;;10.20;4.10;;;;;;;10.92;63.89;94036.66;2028495;70;20160;-73
2024/04/13 05:37:35;;;;;;;9.90;4.15;;;;;;;10.85;63.81;94051.56;2028256;70;20141;-70
2024/04/13 05:40:01;;;;;;;9.07;3.67;;;;;;;10.87;64.28;94046.09;2028667;70;20164;-73
2024/04/13 05:42:27;;;;;;;13.98;3.78;;;;;;;10.92;64.84;94047.94;2028323;70;20157;-75
2024/04/13 05:44:53;;;;;;;15.82;4.47;;;;;;;10.75;63.95;94031.03;2028303;70;20217;-73
2024/04/13 05:47:19;;;;;;;7.00;3.92;;;;;;;10.91;64.71;94049.25;2028682;70;20168;-72
2024/04/13 05:49:44;;;;;;;10.27;4.15;;;;;;;10.84;65.45;94047.25;2028421;70;20544;-69
2024/04/13 05:52:11;;;;;;;9.15;3.55;;;;;;;10.88;65.09;94047.59;2028615;70;20137;-69
2024/04/13 05:54:37;;;;;;;9.90;3.90;;;;;;;10.96;64.59;94052.41;2028650;70;20153;-74
2024/04/13 05:57:02;;;;;;;12.98;4.30;;;;;;;10.91;65.17;94054.91;2028579;70;20152;-70
2024/04/13 05:59:28;;;;;;;8.73;3.80;;;;;;;11.02;64.36;94044.44;2025058;70;20508;-69
2024/04/13 06:01:53;;;;;;;9.30;3.85;;;;;;;11.05;64.45;94041.22;2028497;70;20153;-69
2024/04/13 06:04:19;;;;;;;8.98;3.88;;;;;;;10.99;64.22;94023.03;2028431;70;20152;-71
2024/04/13 06:06:45;;;;;;;9.50;3.65;;;;;;;11.13;63.90;94041.84;2028561;70;20626;-71
2024/04/13 06:09:10;;;;;;;11.20;4.10;;;;;;;11.14;63.42;94046.16;2028661;70;20176;-69
2024/04/13 06:11:36;;;;;;;7.90;3.92;;;;;;;11.16;64.85;94037.84;2028670;70;20495;-70
2024/04/13 06:14:02;;;;;;;10.35;4.30;;;;;;;11.11;64.78;94043.75;2028192;70;20129;-76
2024/04/13 06:16:28;;;;;;;11.35;4.57;;;;;;;11.25;63.66;94042.06;2028760;70;20172;-72
2024/04/13 06:18:54;;;;;;;13.18;5.75;;;;;;;11.24;64.12;94039.84;2028600;70;20622;-71
2024/04/13 06:21:19;;;;;;;14.07;5.90;;;;;;;11.36;64.27;94052.84;2028619;70;20137;-70
2024/04/13 06:23:45;;;;;;;11.70;5.50;;;;;;;11.44;63.93;94053.47;2028579;70;20127;-70
2024/04/13 06:26:10;;;;;;;12.07;4.78;;;;;;;11.44;63.32;94052.72;2028408;70;20229;-73
2024/04/13 06:28:36;;;;;;;34.67;17.02;;;;;;;11.00;64.92;94042.22;2024486;70;20248;-74
2024/04/13 06:31:02;;;;;;;55.22;25.45;;;;;;;11.18;64.15;94032.41;2028445;70;20558;-72
2024/04/13 06:33:27;;;;;;;30.83;13.50;;;;;;;11.39;63.51;94043.19;2024792;70;20259;-70
2024/04/13 06:35:54;;;;;;;25.55;11.35;;;;;;;11.43;64.00;94043.50;2028442;70;20183;-69
2024/04/13 06:38:26;;;;;;;29.55;13.20;;;;;;;11.43;63.41;94035.06;2028146;70;20164;-71
2024/04/13 06:40:55;;;;;;;30.20;13.40;;;;;;;11.45;63.36;94028.81;2024933;70;20231;-69
2024/04/13 06:43:22;;;;;;;26.15;11.45;;;;;;;11.41;64.39;94042.63;2028488;70;20219;-69
2024/04/13 06:45:48;;;;;;;21.58;11.45;;;;;;;11.75;63.87;94041.00;2027889;70;20167;-69
2024/04/13 06:48:14;;;;;;;23.15;11.15;;;;;;;12.15;64.04;94044.16;2028288;70;20640;-73
2024/04/13 06:50:40;;;;;;;26.35;12.82;;;;;;;12.53;61.04;94050.50;2028361;70;20161;-69
2024/04/13 06:53:06;;;;;;;14.50;6.07;;;;;;;12.64;61.81;94038.59;2028429;70;20184;-68
2024/04/13 06:55:31;;;;;;;11.82;5.25;;;;;;;13.04;61.24;94042.94;2028282;70;20221;-68
2024/04/13 06:57:57;;;;;;;22.83;11.60;;;;;;;13.04;62.25;94038.03;2024788;70;20244;-75
2024/04/13 07:00:22;;;;;;;14.52;7.07;;;;;;;13.31;61.52;94040.72;2028475;70;20152;-74
2024/04/13 07:02:48;;;;;;;22.98;8.88;;;;;;;13.73;60.54;94034.50;2028722;70;20255;-73
2024/04/13 07:05:14;;;;;;;22.55;8.35;;;;;;;14.22;59.82;94026.56;2028767;70;20219;-72
2024/04/13 07:07:40;;;;;;;14.38;5.53;;;;;;;14.42;57.40;94023.63;2028720;70;20180;-73
2024/04/13 07:10:06;;;;;;;19.10;5.63;;;;;;;14.72;57.78;94033.47;2025217;70;20152;-75
2024/04/13 07:12:32;;;;;;;9.77;5.80;;;;;;;15.03;57.63;94027.72;2028814;70;20637;-74
2024/04/13 07:14:58;;;;;;;10.10;5.60;;;;;;;15.05;57.83;94024.25;2028613;70;20232;-70
2024/04/13 07:17:24;;;;;;;14.65;5.90;;;;;;;15.27;56.85;94011.50;2024914;70;20140;-70
2024/04/13 07:19:50;;;;;;;12.18;5.40;;;;;;;15.48;55.27;94019.22;2028740;70;20195;-76
2024/04/13 07:22:16;;;;;;;13.70;5.03;;;;;;;15.62;54.69;94014.44;2028918;70;20184;-75
2024/04/13 07:24:42;;;;;;;11.13;4.82;;;;;;;15.79;54.62;94019.06;2028774;70;20243;-68
2024/04/13 07:27:08;;;;;;;10.45;4.88;;;;;;;15.57;53.25;93972.97;2025229;70;20152;-70
2024/04/13 07:29:33;;;;;;;10.13;3.95;;;;;;;15.95;53.44;94008.00;2028685;70;20194;-73
2024/04/13 07:31:59;;;;;;;14.45;5.63;;;;;;;16.32;52.37;94004.53;2028540;70;20161;-69
2024/04/13 07:34:24;;;;;;;10.75;4.68;;;;;;;16.26;51.27;93999.97;2024444;71;20246;-72
2024/04/13 07:36:50;;;;;;;9.40;4.65;;;;;;;16.33;51.67;94000.31;2022488;71;20230;-70
2024/04/13 07:39:16;;;;;;;9.85;4.05;;;;;;;17.02;51.09;94002.31;2022441;71;20244;-73
2024/04/13 07:41:41;;;;;;;14.23;3.97;;;;;;;17.46;50.59;93997.69;2024560;71;20161;-70
2024/04/13 07:44:07;;;;;;;10.25;4.55;;;;;;;17.67;50.76;93995.94;2022332;71;20365;-71
2024/04/13 07:46:33;;;;;;;13.98;4.28;;;;;;;17.75;50.18;93993.56;2024215;71;20238;-72
2024/04/13 07:48:59;;;;;;;8.98;4.05;;;;;;;18.00;49.41;93993.50;2022200;71;20181;-73
2024/04/13 07:51:25;;;;;;;9.13;3.47;;;;;;;18.13;48.42;93989.22;2021719;71;20189;-77
2024/04/13 07:53:51;;;;;;;5.40;2.80;;;;;;;18.39;48.35;93991.97;2022264;71;20165;-77
2024/04/13 07:56:17;;;;;;;13.85;3.13;;;;;;;18.73;47.41;93985.22;2022180;71;20244;-70
2024/04/13 07:58:43;;;;;;;13.43;3.50;;;;;;;18.79;46.74;93990.50;2022018;71;20140;-70
2024/04/13 08:01:09;;;;;;;8.00;2.90;;;;;;;18.36;46.39;93996.09;2022209;71;20150;-71
2024/04/13 08:03:34;;;;;;;10.65;2.90;;;;;;;18.67;45.66;93995.56;2021947;71;20146;-72
2024/04/13 08:06:00;;;;;;;8.80;2.35;;;;;;;19.43;44.95;93997.97;2022276;71;20173;-72
2024/04/13 08:08:26;;;;;;;6.40;2.20;;;;;;;19.62;43.87;93976.75;2022228;71;20141;-71
2024/04/13 08:10:52;;;;;;;8.18;2.53;;;;;;;20.34;42.19;93982.88;2022181;71;20587;-74
2024/04/13 08:13:17;;;;;;;6.97;2.08;;;;;;;20.25;40.89;93984.63;2022485;71;20184;-75
2024/04/13 08:15:43;;;;;;;6.68;2.08;;;;;;;20.40;41.67;93972.47;2022338;71;20141;-73
2024/04/13 08:18:09;;;;;;;8.88;1.85;;;;;;;20.56;40.38;93975.31;2022181;71;20160;-74
2024/04/13 08:20:35;;;;;;;8.43;2.40;;;;;;;21.10;40.12;93967.59;2022394;71;20145;-76
2024/04/13 08:23:01;;;;;;;6.40;1.98;;;;;;;20.82;39.36;93967.13;2022341;71;20167;-77
2024/04/13 08:25:28;;;;;;;11.45;2.25;;;;;;;20.96;40.68;93964.88;2022162;71;20177;-73
2024/04/13 08:27:54;;;;;;;5.55;2.08;;;;;;;20.86;39.93;93964.47;2022057;71;20240;-76
2024/04/13 08:30:19;;;;;;;6.45;2.05;;;;;;;21.35;41.96;93957.16;2022089;71;20196;-72
2024/04/13 08:32:48;;;;;;;6.00;1.90;;;;;;;21.83;40.47;93952.63;2024024;70;20157;-76
2024/04/13 08:35:14;;;;;;;6.15;2.20;;;;;;;21.75;39.60;93958.06;2024798;70;20280;-76
2024/04/13 08:37:39;;;;;;;8.60;2.50;;;;;;;22.03;38.55;93956.28;2028560;70;20152;-74
2024/04/13 08:40:10;;;;;;;5.70;1.80;;;;;;;22.12;37.91;93959.47;2028659;70;20152;-72
2024/04/13 08:42:40;;;;;;;7.20;2.10;;;;;;;22.21;38.08;93938.31;2028519;70;20149;-70
2024/04/13 08:45:09;;;;;;;4.57;1.60;;;;;;;23.06;39.68;93952.84;2028333;70;20240;-74
2024/04/13 08:47:38;;;;;;;4.50;1.50;;;;;;;22.99;38.31;93947.56;2025004;70;20161;-72
2024/04/13 08:50:04;;;;;;;8.23;2.03;;;;;;;22.69;38.67;93945.09;2025058;70;20204;-71
2024/04/13 08:52:30;;;;;;;8.48;2.05;;;;;;;23.65;38.05;93942.59;2028625;70;20183;-73
2024/04/13 08:54:57;;;;;;;8.73;2.30;;;;;;;24.20;37.34;93944.25;2024729;70;20152;-73
2024/04/13 08:57:28;;;;;;;7.65;1.98;;;;;;;24.00;36.75;93941.50;2028442;70;20143;-72
2024/04/13 08:59:59;;;;;;;7.20;1.85;;;;;;;24.62;38.10;93946.19;2028431;70;20160;-72
2024/04/13 09:02:30;;;;;;;7.18;1.98;;;;;;;25.03;36.45;93940.13;2028541;70;20128;-71
2024/04/13 09:05:02;;;;;;;5.90;1.80;;;;;;;25.06;35.64;93940.88;2028597;70;20552;-72
2024/04/13 09:07:31;;;;;;;6.50;1.98;;;;;;;24.09;35.12;93937.47;2028684;70;20157;-78
2024/04/13 09:09:59;;;;;;;6.25;1.88;;;;;;;23.92;35.13;93938.41;2028474;70;20174;-76
2024/04/13 09:12:25;;;;;;;5.95;1.80;;;;;;;25.03;36.06;93943.00;2028635;70;20230;-76
2024/04/13 09:14:51;;;;;;;7.22;1.80;;;;;;;25.08;33.65;93944.59;2028274;70;20229;-74
2024/04/13 09:17:17;;;;;;;7.32;2.03;;;;;;;25.67;34.56;93933.81;2024868;70;20149;-74
2024/04/13 09:19:46;;;;;;;4.38;1.60;;;;;;;26.15;35.21;93939.25;2028553;70;20156;-74
2024/04/13 09:22:14;;;;;;;7.30;1.70;;;;;;;26.10;33.89;93931.91;2028313;70;20176;-74
2024/04/13 09:24:40;;;;;;;6.60;1.90;;;;;;;26.34;32.64;93920.16;2028302;70;20139;-77
2024/04/13 09:27:14;;;;;;;8.80;1.88;;;;;;;26.78;34.00;93916.75;2028493;70;20136;-74
2024/04/13 09:29:40;;;;;;;8.18;1.95;;;;;;;27.14;32.94;93925.38;2025082;70;20168;-74
2024/04/13 09:32:07;;;;;;;6.82;1.73;;;;;;;26.89;33.88;93932.09;2028510;70;20217;-75
2024/04/13 09:34:35;;;;;;;7.25;1.70;;;;;;;26.77;32.33;93929.72;2028317;70;20209;-71
2024/04/13 09:37:10;;;;;;;6.47;1.80;;;;;;;26.93;31.39;93920.63;2028901;70;20223;-70
2024/04/13 09:39:36;;;;;;;5.03;1.60;;;;;;;28.10;31.03;93924.06;2028635;70;20164;-73
2024/04/13 09:42:11;;;;;;;5.20;1.60;;;;;;;28.54;30.59;93918.16;2025082;70;20169;-71
2024/04/13 09:44:37;;;;;;;4.10;1.73;;;;;;;26.70;30.20;93905.75;2028110;70;20178;-71
2024/04/13 09:47:03;;;;;;;5.70;1.83;;;;;;;26.16;31.07;93905.34;2028068;70;20160;-74
2024/04/13 09:49:29;;;;;;;11.88;1.90;;;;;;;26.95;29.45;93901.19;2028509;70;20156;-75
2024/04/13 09:51:58;;;;;;;5.95;1.70;;;;;;;27.72;29.73;93901.06;2028397;70;20650;-75
2024/04/13 09:54:27;;;;;;;6.53;1.40;;;;;;;28.24;29.64;93894.56;2027939;70;20160;-72
2024/04/13 09:56:53;;;;;;;7.57;1.70;;;;;;;28.77;29.17;93893.09;2024685;70;20195;-72
2024/04/13 09:59:21;;;;;;;5.38;1.50;;;;;;;29.07;29.21;93889.78;2024865;70;20157;-74
2024/04/13 10:01:47;;;;;;;7.13;1.60;;;;;;;28.42;27.96;93891.94;2024791;70;20166;-71
2024/04/13 10:04:13;;;;;;;9.32;1.73;;;;;;;28.10;29.45;93881.38;2028259;70;20148;-72
2024/04/13 10:06:40;;;;;;;7.20;1.40;;;;;;;28.94;28.58;93879.50;2028261;70;20236;-69
2024/04/13 10:09:11;;;;;;;5.53;1.50;;;;;;;30.26;27.86;93867.53;2024806;70;20529;-71
2024/04/13 10:11:44;;;;;;;3.78;1.48;;;;;;;30.59;28.92;93869.13;2028311;70;20155;-72
2024/04/13 10:14:12;;;;;;;4.25;1.60;;;;;;;31.24;26.91;93864.94;2024432;70;20180;-72
2024/04/13 10:16:42;;;;;;;7.47;1.70;;;;;;;32.24;26.44;93867.81;2028048;70;20248;-70
2024/04/13 10:19:14;;;;;;;3.88;1.48;;;;;;;31.94;25.58;93862.81;2028163;70;20651;-72
2024/04/13 10:21:39;;;;;;;9.27;2.60;;;;;;;31.38;26.83;93850.41;2027938;70;20578;-69
2024/04/13 10:24:14;;;;;;;9.10;3.67;;;;;;;31.73;24.47;93847.50;2024435;70;20161;-68
2024/04/13 10:26:40;;;;;;;10.65;6.40;;;;;;;29.83;27.59;93841.13;2027927;70;20251;-71
2024/04/13 10:29:05;;;;;;;6.88;2.72;;;;;;;33.24;23.99;93847.00;2027925;70;20646;-74
2024/04/13 10:31:31;;;;;;;3.67;1.48;;;;;;;32.14;24.46;93840.19;2024748;70;20180;-73
2024/04/13 10:33:57;;;;;;;3.55;1.70;;;;;;;32.59;24.02;93836.41;2027887;70;20483;-71
2024/04/13 10:36:35;;;;;;;6.50;2.00;;;;;;;33.33;24.93;93837.44;2028238;70;20304;-71
2024/04/13 10:39:03;;;;;;;3.65;1.50;;;;;;;31.79;22.81;93824.22;2028182;70;20621;-70
2024/04/13 10:41:36;;;;;;;8.85;5.15;;;;;;;32.53;23.84;93818.94;2024449;70;20229;-70
2024/04/13 10:44:07;;;;;;;16.33;5.70;;;;;;;35.93;21.86;93826.25;2027920;70;20210;-70
2024/04/13 10:46:33;;;;;;;8.18;1.67;;;;;;;35.44;22.03;93820.47;2028153;70;20272;-72
2024/04/13 10:49:01;;;;;;;3.65;1.38;;;;;;;34.01;21.91;93808.41;2028256;70;20611;-72
2024/04/13 10:51:26;;;;;;;6.50;1.63;;;;;;;35.56;21.65;93809.31;2028193;70;20152;-74
2024/04/13 10:53:53;;;;;;;8.68;1.95;;;;;;;34.90;21.10;93806.59;2028315;70;20149;-70
2024/04/13 10:56:18;;;;;;;9.25;2.15;;;;;;;37.76;21.46;93800.44;2027993;70;20211;-73
2024/04/13 10:58:44;;;;;;;6.07;1.20;;;;;;;38.46;20.15;93805.22;2024574;70;20610;-71
2024/04/13 11:01:10;;;;;;;3.67;1.45;;;;;;;37.21;20.52;93796.59;2028212;70;20217;-70
2024/04/13 11:03:36;;;;;;;5.78;1.23;;;;;;;37.49;19.74;93792.28;2028241;70;20276;-75
2024/04/13 11:06:01;;;;;;;9.32;1.38;;;;;;;39.75;20.21;93793.22;2028711;70;20213;-74
2024/04/13 11:08:28;;;;;;;5.20;1.30;;;;;;;39.22;18.85;93800.81;2028295;70;20612;-76
2024/04/13 11:10:58;;;;;;;3.63;1.20;;;;;;;41.18;18.74;93794.03;2024781;70;20152;-75
2024/04/13 11:13:24;;;;;;;6.82;1.38;;;;;;;41.88;18.99;93789.78;2028064;70;20172;-73
2024/04/13 11:15:50;;;;;;;4.25;1.20;;;;;;;43.47;18.30;93794.50;2028237;70;20487;-71
2024/04/13 11:18:17;;;;;;;6.55;1.30;;;;;;;42.98;17.41;93784.22;2028475;70;20534;-74
2024/04/13 11:20:47;;;;;;;4.88;1.30;;;;;;;44.13;18.45;93786.09;2028345;70;20578;-75
2024/04/13 11:23:14;;;;;;;4.00;1.10;;;;;;;43.13;16.90;93785.00;2028381;70;20711;-74
2024/04/13 11:25:40;;;;;;;3.92;1.30;;;;;;;44.26;16.70;93783.22;2022032;70;20157;-72
2024/04/13 11:28:06;;;;;;;6.05;1.42;;;;;;;42.37;16.73;93770.63;2024636;70;20320;-74